createdAt,value
2023-08-02T00:00:58.171Z,19.72
2023-08-02T00:03:24.664Z,19.75
2023-08-02T00:05:59.014Z,19.77
2023-08-02T00:08:26.752Z,19.76
2023-08-02T00:10:53.748Z,19.68
2023-08-02T00:13:20.355Z,19.70
2023-08-02T00:15:47.015Z,19.66
2023-08-02T00:18:13.691Z,19.74
2023-08-02T00:20:40.951Z,19.68
2023-08-02T00:23:07.767Z,19.71
2023-08-02T00:25:34.330Z,19.71
2023-08-02T00:28:00.916Z,19.64
2023-08-02T00:30:27.772Z,19.62
2023-08-02T00:32:54.449Z,19.59
2023-08-02T00:35:21.076Z,19.55
2023-08-02T00:37:47.542Z,19.52
2023-08-02T00:40:14.609Z,19.47
2023-08-02T00:42:41.294Z,19.48
2023-08-02T00:45:08.459Z,19.52
2023-08-02T00:47:36.170Z,19.52
2023-08-02T00:50:04.714Z,19.45
2023-08-02T00:52:31.631Z,19.44
2023-08-02T00:54:58.244Z,19.42
2023-08-02T00:57:24.776Z,19.40
2023-08-02T00:59:51.283Z,19.33
2023-08-02T01:02:17.887Z,19.37
2023-08-02T01:04:45.932Z,19.41
2023-08-02T01:07:21.612Z,19.42
2023-08-02T01:09:55.913Z,19.35
2023-08-02T01:12:24.287Z,19.41
2023-08-02T01:14:56.054Z,19.35
2023-08-02T01:17:29.140Z,19.36
2023-08-02T01:20:00.755Z,19.36
2023-08-02T01:22:27.296Z,19.34
2023-08-02T01:24:53.927Z,19.34
2023-08-02T01:27:24.318Z,19.33
2023-08-02T01:29:53.128Z,19.32
2023-08-02T01:32:22.623Z,19.30
2023-08-02T01:34:50.856Z,19.33
2023-08-02T01:37:17.514Z,19.35
2023-08-02T01:39:43.988Z,19.37
2023-08-02T01:42:14.973Z,19.36
2023-08-02T01:44:41.487Z,19.42
2023-08-02T01:47:08.014Z,19.38
2023-08-02T01:49:34.478Z,19.41
2023-08-02T01:52:01.098Z,19.38
2023-08-02T01:54:27.569Z,19.44
2023-08-02T01:56:54.052Z,19.33
2023-08-02T01:59:20.578Z,19.32
2023-08-02T02:01:47.101Z,19.30
2023-08-02T02:04:13.640Z,19.30
2023-08-02T02:06:40.255Z,19.28
2023-08-02T02:09:06.831Z,19.28
2023-08-02T02:11:33.375Z,19.22
2023-08-02T02:14:00.056Z,19.20
2023-08-02T02:16:26.589Z,19.20
2023-08-02T02:18:53.057Z,19.20
2023-08-02T02:21:19.517Z,19.05
2023-08-02T02:23:46.039Z,19.06
2023-08-02T02:26:12.657Z,18.98
2023-08-02T02:28:39.125Z,18.93
2023-08-02T02:31:05.874Z,18.96
2023-08-02T02:33:32.468Z,19.03
2023-08-02T02:35:59.015Z,19.11
2023-08-02T02:38:25.556Z,19.06
2023-08-02T02:40:52.028Z,19.06
2023-08-02T02:43:18.491Z,19.06
2023-08-02T02:45:44.968Z,19.09
2023-08-02T02:48:11.497Z,19.05
2023-08-02T02:50:37.966Z,19.00
2023-08-02T02:53:04.457Z,18.95
2023-08-02T02:55:30.998Z,18.96
2023-08-02T02:57:57.499Z,18.98
2023-08-02T03:00:24.148Z,18.89
2023-08-02T03:02:50.640Z,18.87
2023-08-02T03:05:17.304Z,18.88
2023-08-02T03:07:43.865Z,18.88
2023-08-02T03:10:10.602Z,18.81
2023-08-02T03:12:37.152Z,18.77
2023-08-02T03:15:03.944Z,18.84
2023-08-02T03:17:30.449Z,18.85
2023-08-02T03:19:56.974Z,18.81
2023-08-02T03:22:23.591Z,18.77
2023-08-02T03:24:50.050Z,18.74
2023-08-02T03:27:16.495Z,18.71
2023-08-02T03:29:42.966Z,18.65
2023-08-02T03:32:09.617Z,18.64
2023-08-02T03:34:36.100Z,18.62
2023-08-02T03:37:02.565Z,18.62
2023-08-02T03:39:29.088Z,18.64
2023-08-02T03:41:56.328Z,18.67
2023-08-02T03:44:22.972Z,18.67
2023-08-02T03:46:49.601Z,18.73
2023-08-02T03:49:16.213Z,18.74
2023-08-02T03:51:42.831Z,18.61
2023-08-02T03:54:09.521Z,18.68
2023-08-02T03:56:36.110Z,18.65
2023-08-02T03:59:02.610Z,18.62
2023-08-02T04:01:29.245Z,18.51
2023-08-02T04:03:55.833Z,18.55
2023-08-02T04:06:22.460Z,18.61
2023-08-02T04:08:49.046Z,18.61
2023-08-02T04:11:15.507Z,18.65
2023-08-02T04:13:42.001Z,18.63
2023-08-02T04:16:08.532Z,18.60
2023-08-02T04:18:35.112Z,18.57
2023-08-02T04:21:01.759Z,18.60
2023-08-02T04:23:28.534Z,18.58
2023-08-02T04:25:56.013Z,18.61
2023-08-02T04:28:23.452Z,18.62
2023-08-02T04:30:51.266Z,18.62
2023-08-02T04:33:18.024Z,18.66
2023-08-02T04:35:44.580Z,18.63
2023-08-02T04:38:11.122Z,18.68
2023-08-02T04:40:40.800Z,18.69
2023-08-02T04:43:07.331Z,18.73
2023-08-02T04:45:33.887Z,18.79
2023-08-02T04:48:00.469Z,18.77
2023-08-02T04:50:27.014Z,18.82
2023-08-02T04:52:53.461Z,18.90
2023-08-02T04:55:19.948Z,18.94
2023-08-02T04:57:46.443Z,18.95
2023-08-02T05:00:13.246Z,18.98
2023-08-02T05:02:39.633Z,18.93
2023-08-02T05:05:06.726Z,18.87
2023-08-02T05:07:38.345Z,18.95
2023-08-02T05:10:07.317Z,19.00
2023-08-02T05:12:39.514Z,19.05
2023-08-02T05:15:07.232Z,19.08
2023-08-02T05:17:33.796Z,19.14
2023-08-02T05:20:00.743Z,19.19
2023-08-02T05:22:27.118Z,19.26
2023-08-02T05:24:53.950Z,19.31
2023-08-02T05:27:20.686Z,19.35
2023-08-02T05:29:47.261Z,19.44
2023-08-02T05:32:13.954Z,19.56
2023-08-02T05:34:40.548Z,19.69
2023-08-02T05:37:07.036Z,19.80
2023-08-02T05:39:33.487Z,19.89
2023-08-02T05:41:59.994Z,20.02
2023-08-02T05:44:26.502Z,20.06
2023-08-02T05:46:52.953Z,20.14
2023-08-02T05:49:19.433Z,20.22
2023-08-02T05:51:45.925Z,20.34
2023-08-02T05:54:12.418Z,20.45
2023-08-02T05:56:38.925Z,20.60
2023-08-02T05:59:05.369Z,20.76
2023-08-02T06:01:31.985Z,20.96
2023-08-02T06:03:58.545Z,21.12
2023-08-02T06:06:25.182Z,21.35
2023-08-02T06:08:51.726Z,21.58
2023-08-02T06:11:18.188Z,21.82
2023-08-02T06:13:44.672Z,22.03
2023-08-02T06:16:11.249Z,22.29
2023-08-02T06:18:37.693Z,22.50
2023-08-02T06:21:06.467Z,22.72
2023-08-02T06:23:32.924Z,22.96
2023-08-02T06:25:59.376Z,23.18
2023-08-02T06:28:25.848Z,23.40
2023-08-02T06:30:52.324Z,23.55
2023-08-02T06:33:18.820Z,23.74
2023-08-02T06:35:47.248Z,23.96
2023-08-02T06:38:13.712Z,24.15
2023-08-02T06:40:40.152Z,24.37
2023-08-02T06:43:06.666Z,24.52
2023-08-02T06:45:33.081Z,24.73
2023-08-02T06:47:59.622Z,24.88
2023-08-02T06:50:26.258Z,25.09
2023-08-02T06:52:52.930Z,25.30
2023-08-02T06:55:19.436Z,25.52
2023-08-02T06:57:45.869Z,25.73
2023-08-02T07:00:12.923Z,25.85
2023-08-02T07:02:39.583Z,26.02
2023-08-02T07:05:07.867Z,26.13
2023-08-02T07:07:36.290Z,26.23
2023-08-02T07:10:02.735Z,26.30
2023-08-02T07:12:29.374Z,26.42
2023-08-02T07:14:55.872Z,26.55
2023-08-02T07:17:22.545Z,26.61
2023-08-02T07:19:49.735Z,26.61
2023-08-02T07:22:18.985Z,26.73
2023-08-02T07:24:45.778Z,26.86
2023-08-02T07:27:12.457Z,26.99
2023-08-02T07:29:38.995Z,27.19
2023-08-02T07:32:06.025Z,27.26
2023-08-02T07:34:34.348Z,27.40
2023-08-02T07:37:00.829Z,27.37
2023-08-02T07:39:27.400Z,27.48
2023-08-02T07:41:53.877Z,27.58
2023-08-02T07:44:20.493Z,27.65
2023-08-02T07:46:47.064Z,27.71
2023-08-02T07:49:13.579Z,27.69
2023-08-02T07:51:40.473Z,27.75
2023-08-02T07:54:07.240Z,27.81
2023-08-02T07:56:33.746Z,27.90
2023-08-02T07:59:01.868Z,28.01
2023-08-02T08:01:30.716Z,27.99
2023-08-02T08:03:57.357Z,27.93
2023-08-02T08:06:25.278Z,27.94
2023-08-02T08:08:52.128Z,28.00
2023-08-02T08:11:18.845Z,28.11
2023-08-02T08:13:45.393Z,28.13
2023-08-02T08:16:11.959Z,28.23
2023-08-02T08:18:38.474Z,28.27
2023-08-02T08:21:05.478Z,28.38
2023-08-02T08:23:32.579Z,28.43
2023-08-02T08:25:59.084Z,28.44
2023-08-02T08:28:25.727Z,28.57
2023-08-02T08:31:02.003Z,28.54
2023-08-02T08:33:29.531Z,28.66
2023-08-02T08:35:56.220Z,28.78
2023-08-02T08:38:22.824Z,28.76
2023-08-02T08:40:53.452Z,28.91
2023-08-02T08:43:21.109Z,28.95
2023-08-02T08:45:48.398Z,28.98
2023-08-02T08:48:15.114Z,29.03
2023-08-02T08:50:47.438Z,29.05
2023-08-02T08:53:20.000Z,29.03
2023-08-02T08:55:50.540Z,29.09
2023-08-02T08:58:17.182Z,29.08
2023-08-02T09:00:45.091Z,29.04
2023-08-02T09:03:14.194Z,28.99
2023-08-02T09:05:44.292Z,29.00
2023-08-02T09:08:10.784Z,29.14
2023-08-02T09:10:37.640Z,29.21
2023-08-02T09:13:04.158Z,29.36
2023-08-02T09:15:30.690Z,29.54
2023-08-02T09:17:57.398Z,29.45
2023-08-02T09:20:26.623Z,29.32
2023-08-02T09:22:53.978Z,29.35
2023-08-02T09:25:28.505Z,29.29
2023-08-02T09:27:56.906Z,29.29
2023-08-02T09:30:30.737Z,29.34
2023-08-02T09:33:01.471Z,29.34
2023-08-02T09:35:28.558Z,29.34
2023-08-02T09:37:55.153Z,29.41
2023-08-02T09:40:36.100Z,29.32
2023-08-02T09:43:05.103Z,29.40
2023-08-02T09:45:35.303Z,29.35
2023-08-02T09:48:02.667Z,29.13
2023-08-02T09:50:29.930Z,28.95
2023-08-02T09:52:56.589Z,28.93
2023-08-02T09:55:23.155Z,28.96
2023-08-02T09:57:50.685Z,28.97
2023-08-02T10:00:18.344Z,28.91
2023-08-02T10:02:47.544Z,28.92
2023-08-02T10:05:15.099Z,28.96
2023-08-02T10:07:48.968Z,28.98
2023-08-02T10:10:22.672Z,28.95
2023-08-02T10:12:53.797Z,28.86
2023-08-02T10:15:21.105Z,28.75
2023-08-02T10:17:48.750Z,28.72
2023-08-02T10:20:16.374Z,28.65
2023-08-02T10:22:43.251Z,28.67
2023-08-02T10:25:09.936Z,28.62
2023-08-02T10:27:38.735Z,28.48
2023-08-02T10:30:05.721Z,28.41
2023-08-02T10:32:32.310Z,28.36
2023-08-02T10:35:00.290Z,28.33
2023-08-02T10:37:54.772Z,28.37
2023-08-02T10:40:26.754Z,28.39
2023-08-02T10:43:04.656Z,28.48
2023-08-02T10:45:31.237Z,28.46
2023-08-02T10:48:23.389Z,28.37
2023-08-02T10:50:50.281Z,28.35
2023-08-02T10:53:16.973Z,28.31
2023-08-02T10:56:04.116Z,28.30
2023-08-02T10:58:47.160Z,28.33
2023-08-02T11:01:14.222Z,28.37
2023-08-02T11:03:41.125Z,28.39
2023-08-02T11:06:07.800Z,28.48
2023-08-02T11:08:47.244Z,28.45
2023-08-02T11:11:13.779Z,28.45
2023-08-02T11:13:41.432Z,28.35
2023-08-02T11:16:08.813Z,28.46
2023-08-02T11:18:42.725Z,28.48
2023-08-02T11:21:13.170Z,28.53
2023-08-02T11:24:01.043Z,28.61
2023-08-02T11:26:27.113Z,28.67
2023-08-02T11:28:53.789Z,28.73
2023-08-02T11:31:28.679Z,28.75
2023-08-02T11:33:55.283Z,28.70
2023-08-02T11:36:21.856Z,28.72
2023-08-02T11:38:48.539Z,28.75
2023-08-02T11:41:24.623Z,28.85
2023-08-02T11:43:51.557Z,28.90
2023-08-02T11:46:22.975Z,28.72
2023-08-02T11:48:50.006Z,28.78
2023-08-02T11:51:19.828Z,28.74
2023-08-02T11:53:56.667Z,28.71
2023-08-02T11:56:24.599Z,28.67
2023-08-02T11:58:51.820Z,28.75
2023-08-02T12:01:19.923Z,28.74
2023-08-02T12:04:02.503Z,28.76
2023-08-02T12:06:44.772Z,28.81
2023-08-02T12:09:11.456Z,28.84
2023-08-02T12:11:38.007Z,28.79
2023-08-02T12:14:04.545Z,28.87
2023-08-02T12:16:41.322Z,28.86
2023-08-02T12:19:09.198Z,28.85
2023-08-02T12:21:36.349Z,28.83
2023-08-02T12:24:17.314Z,28.78
2023-08-02T12:26:44.759Z,28.76
2023-08-02T12:29:22.390Z,28.74
2023-08-02T12:31:49.612Z,28.77
2023-08-02T12:34:16.498Z,28.83
2023-08-02T12:36:43.189Z,28.88
2023-08-02T12:39:09.893Z,28.92
2023-08-02T12:41:36.408Z,28.96
2023-08-02T12:44:05.717Z,28.94
2023-08-02T12:46:32.896Z,28.92
2023-08-02T12:48:59.450Z,28.96
2023-08-02T12:51:25.958Z,28.98
2023-08-02T12:53:52.546Z,29.04
2023-08-02T12:56:19.044Z,29.04
2023-08-02T12:58:45.484Z,29.06
2023-08-02T13:01:12.003Z,29.12
2023-08-02T13:03:38.687Z,29.15
2023-08-02T13:06:05.463Z,29.13
2023-08-02T13:08:32.035Z,29.18
2023-08-02T13:10:58.625Z,29.09
2023-08-02T13:13:25.212Z,29.04
2023-08-02T13:15:51.749Z,29.03
2023-08-02T13:18:18.322Z,29.00
2023-08-02T13:20:45.317Z,28.97
2023-08-02T13:23:12.078Z,29.00
2023-08-02T13:25:39.227Z,29.04
2023-08-02T13:28:07.171Z,29.02
2023-08-02T13:30:35.184Z,29.00
2023-08-02T13:33:02.381Z,29.02
2023-08-02T13:35:29.050Z,29.03
2023-08-02T13:37:55.554Z,29.01
2023-08-02T13:40:22.049Z,29.00
2023-08-02T13:42:48.587Z,28.91
2023-08-02T13:45:15.090Z,28.90
2023-08-02T13:47:41.606Z,28.90
2023-08-02T13:50:08.489Z,28.86
2023-08-02T13:52:35.168Z,28.88
2023-08-02T13:55:02.307Z,28.85
2023-08-02T13:57:28.899Z,28.81
2023-08-02T13:59:55.478Z,28.82
2023-08-02T14:02:22.450Z,28.79
2023-08-02T14:04:49.768Z,28.68
2023-08-02T14:07:16.476Z,28.66
2023-08-02T14:09:43.149Z,28.71
2023-08-02T14:12:16.952Z,28.67
2023-08-02T14:14:44.397Z,28.65
2023-08-02T14:17:10.999Z,28.67
2023-08-02T14:19:37.539Z,28.66
2023-08-02T14:22:05.030Z,28.66
2023-08-02T14:24:31.665Z,28.63
2023-08-02T14:26:58.172Z,28.61
2023-08-02T14:29:24.816Z,28.62
2023-08-02T14:31:51.305Z,28.59
2023-08-02T14:34:23.069Z,28.57
2023-08-02T14:36:49.749Z,28.60
2023-08-02T14:39:16.424Z,28.64
2023-08-02T14:41:43.088Z,28.64
2023-08-02T14:44:09.596Z,28.66
2023-08-02T14:46:36.431Z,28.65
2023-08-02T14:49:02.946Z,28.63
2023-08-02T14:51:29.460Z,28.59
2023-08-02T14:54:07.539Z,28.58
2023-08-02T14:56:39.557Z,28.55
2023-08-02T14:59:06.057Z,28.50
2023-08-02T15:01:32.557Z,28.51
2023-08-02T15:03:59.033Z,28.49
2023-08-02T15:06:26.460Z,28.51
2023-08-02T15:08:53.979Z,28.48
2023-08-02T15:11:20.634Z,28.46
2023-08-02T15:13:47.080Z,28.49
2023-08-02T15:16:13.845Z,28.50
2023-08-02T15:18:40.591Z,28.48
2023-08-02T15:21:07.235Z,28.40
2023-08-02T15:23:33.755Z,28.30
2023-08-02T15:26:00.249Z,28.29
2023-08-02T15:28:26.720Z,28.27
2023-08-02T15:30:53.229Z,28.28
2023-08-02T15:33:19.721Z,28.25
2023-08-02T15:35:46.272Z,28.21
2023-08-02T15:38:14.060Z,28.19
2023-08-02T15:40:40.639Z,28.21
2023-08-02T15:43:07.351Z,28.12
2023-08-02T15:45:34.748Z,28.07
2023-08-02T15:48:01.409Z,28.04
2023-08-02T15:50:28.025Z,27.99
2023-08-02T15:52:54.582Z,27.91
2023-08-02T15:55:21.943Z,27.86
2023-08-02T15:57:50.769Z,27.79
2023-08-02T16:00:18.783Z,27.72
2023-08-02T16:02:46.009Z,27.69
2023-08-02T16:05:12.817Z,27.72
2023-08-02T16:07:39.356Z,27.72
2023-08-02T16:10:06.691Z,27.74
2023-08-02T16:12:33.265Z,27.73
2023-08-02T16:15:00.350Z,27.67
2023-08-02T16:17:26.992Z,27.66
2023-08-02T16:19:53.611Z,27.69
2023-08-02T16:22:20.273Z,27.67
2023-08-02T16:24:46.840Z,27.69
2023-08-02T16:27:14.316Z,27.69
2023-08-02T16:29:40.907Z,27.71
2023-08-02T16:32:07.540Z,27.63
2023-08-02T16:34:34.138Z,27.61
2023-08-02T16:37:00.648Z,27.63
2023-08-02T16:39:27.104Z,27.65
2023-08-02T16:41:53.568Z,27.66
2023-08-02T16:44:19.928Z,27.64
2023-08-02T16:46:46.423Z,27.56
2023-08-02T16:49:12.976Z,27.60
2023-08-02T16:51:39.491Z,27.61
2023-08-02T16:54:06.127Z,27.64
2023-08-02T16:56:32.696Z,27.58
2023-08-02T16:58:59.170Z,27.52
2023-08-02T17:01:26.295Z,27.47
2023-08-02T17:03:53.213Z,27.41
2023-08-02T17:06:19.956Z,27.38
2023-08-02T17:08:46.589Z,27.40
2023-08-02T17:11:13.087Z,27.36
2023-08-02T17:13:39.626Z,27.35
2023-08-02T17:16:06.500Z,27.34
2023-08-02T17:18:33.148Z,27.35
2023-08-02T17:20:59.709Z,27.35
2023-08-02T17:23:26.268Z,27.33
2023-08-02T17:25:52.742Z,27.31
2023-08-02T17:28:19.110Z,27.28
2023-08-02T17:30:46.661Z,27.25
2023-08-02T17:33:13.463Z,27.16
2023-08-02T17:35:40.214Z,27.11
2023-08-02T17:38:06.723Z,27.09
2023-08-02T17:40:33.553Z,27.00
2023-08-02T17:43:00.035Z,26.97
2023-08-02T17:45:27.860Z,26.99
2023-08-02T17:47:55.266Z,26.95
2023-08-02T17:50:21.844Z,26.91
2023-08-02T17:52:48.396Z,26.82
2023-08-02T17:55:14.924Z,26.81
2023-08-02T17:57:41.496Z,26.83
2023-08-02T18:00:09.128Z,26.78
2023-08-02T18:02:36.207Z,26.76
2023-08-02T18:05:02.807Z,26.79
2023-08-02T18:07:29.280Z,26.76
2023-08-02T18:09:55.746Z,26.72
2023-08-02T18:12:22.228Z,26.63
2023-08-02T18:14:48.687Z,26.59
2023-08-02T18:17:15.462Z,26.48
2023-08-02T18:19:42.029Z,26.36
2023-08-02T18:22:08.706Z,26.36
2023-08-02T18:24:39.197Z,26.31
2023-08-02T18:27:06.237Z,26.30
2023-08-02T18:29:32.795Z,26.23
2023-08-02T18:31:59.361Z,26.25
2023-08-02T18:34:25.880Z,26.19
2023-08-02T18:36:52.262Z,26.16
2023-08-02T18:39:18.757Z,26.12
2023-08-02T18:41:45.449Z,26.11
2023-08-02T18:44:12.219Z,26.00
2023-08-02T18:46:38.949Z,26.00
2023-08-02T18:49:05.544Z,25.95
2023-08-02T18:51:32.110Z,25.94
2023-08-02T18:53:58.644Z,25.84
2023-08-02T18:56:25.528Z,25.83
2023-08-02T18:58:53.088Z,25.79
2023-08-02T19:01:19.976Z,25.73
2023-08-02T19:03:46.884Z,25.74
2023-08-02T19:06:15.128Z,25.68
2023-08-02T19:08:45.375Z,25.64
2023-08-02T19:11:26.093Z,25.54
2023-08-02T19:13:53.228Z,25.51
2023-08-02T19:16:20.402Z,25.46
2023-08-02T19:18:47.073Z,25.39
2023-08-02T19:21:14.367Z,25.34
2023-08-02T19:23:45.800Z,25.30
2023-08-02T19:26:22.515Z,25.24
2023-08-02T19:28:51.470Z,25.16
2023-08-02T19:31:21.106Z,25.16
2023-08-02T19:33:47.829Z,25.05
2023-08-02T19:36:21.862Z,24.99
2023-08-02T19:38:49.706Z,24.96
2023-08-02T19:41:30.406Z,24.84
2023-08-02T19:43:59.317Z,24.74
2023-08-02T19:46:26.894Z,24.67
2023-08-02T19:48:53.458Z,24.58
2023-08-02T19:51:19.933Z,24.42
2023-08-02T19:53:46.464Z,24.34
2023-08-02T19:56:25.197Z,24.26
2023-08-02T19:58:57.394Z,24.07
2023-08-02T20:01:30.961Z,24.05
2023-08-02T20:03:57.971Z,24.03
2023-08-02T20:06:26.837Z,24.08
2023-08-02T20:08:53.514Z,24.08
2023-08-02T20:11:22.385Z,24.05
2023-08-02T20:13:52.023Z,24.03
2023-08-02T20:16:26.831Z,23.98
2023-08-02T20:18:55.473Z,23.95
2023-08-02T20:21:24.185Z,23.86
2023-08-02T20:24:01.019Z,23.75
2023-08-02T20:26:28.438Z,23.70
2023-08-02T20:28:56.607Z,23.70
2023-08-02T20:31:24.520Z,23.65
2023-08-02T20:33:55.767Z,23.63
2023-08-02T20:36:23.781Z,23.59
2023-08-02T20:38:52.382Z,23.60
2023-08-02T20:41:23.731Z,23.55
2023-08-02T20:43:52.952Z,23.49
2023-08-02T20:46:21.195Z,23.44
2023-08-02T20:48:48.540Z,23.37
2023-08-02T20:51:16.186Z,23.32
2023-08-02T20:53:43.357Z,23.32
2023-08-02T20:56:10.993Z,23.26
2023-08-02T20:58:38.500Z,23.21
2023-08-02T21:01:06.406Z,23.12
2023-08-02T21:03:35.704Z,23.04
2023-08-02T21:06:03.548Z,23.07
2023-08-02T21:08:30.068Z,22.98
2023-08-02T21:10:56.769Z,23.01
2023-08-02T21:13:25.967Z,22.97
2023-08-02T21:15:53.638Z,22.86
2023-08-02T21:18:23.822Z,22.87
2023-08-02T21:20:50.445Z,22.87
2023-08-02T21:23:18.941Z,22.80
2023-08-02T21:25:48.107Z,22.76
2023-08-02T21:28:17.490Z,22.77
2023-08-02T21:30:46.647Z,22.76
2023-08-02T21:33:14.836Z,22.68
2023-08-02T21:35:45.900Z,22.70
2023-08-02T21:38:23.987Z,22.72
2023-08-02T21:40:52.351Z,22.70
2023-08-02T21:43:26.337Z,22.70
2023-08-02T21:46:17.646Z,22.70
2023-08-02T21:48:46.240Z,22.65
2023-08-02T21:51:13.757Z,22.65
2023-08-02T21:53:44.425Z,22.58
2023-08-02T21:56:12.022Z,22.61
2023-08-02T21:58:40.652Z,22.66
2023-08-02T22:01:11.572Z,22.68
2023-08-02T22:03:40.067Z,22.68
2023-08-02T22:06:06.666Z,22.72
2023-08-02T22:08:41.852Z,22.72
2023-08-02T22:11:12.320Z,22.71
2023-08-02T22:13:39.191Z,22.68
2023-08-02T22:16:09.474Z,22.69
2023-08-02T22:18:36.318Z,22.67
2023-08-02T22:21:03.218Z,22.65
2023-08-02T22:23:30.597Z,22.61
2023-08-02T22:25:57.106Z,22.60
2023-08-02T22:28:23.982Z,22.58
2023-08-02T22:30:50.652Z,22.55
2023-08-02T22:33:17.192Z,22.54
2023-08-02T22:35:43.693Z,22.49
2023-08-02T22:38:10.776Z,22.49
2023-08-02T22:40:38.310Z,22.45
2023-08-02T22:43:04.964Z,22.37
2023-08-02T22:45:31.357Z,22.39
2023-08-02T22:48:22.961Z,22.34
2023-08-02T22:50:55.210Z,22.30
2023-08-02T22:53:23.329Z,22.29
2023-08-02T22:55:49.932Z,22.25
2023-08-02T22:58:16.365Z,22.20
2023-08-02T23:00:42.918Z,22.15
2023-08-02T23:03:37.453Z,22.14
2023-08-02T23:06:05.474Z,22.10
2023-08-02T23:08:36.703Z,22.11
2023-08-02T23:11:05.007Z,22.17
2023-08-02T23:13:31.520Z,22.15
2023-08-02T23:15:58.127Z,22.17
2023-08-02T23:18:24.764Z,22.11
2023-08-02T23:20:51.425Z,22.11
2023-08-02T23:23:23.754Z,22.11
2023-08-02T23:25:57.843Z,22.14
2023-08-02T23:28:24.401Z,22.17
2023-08-02T23:30:51.051Z,22.15
2023-08-02T23:33:17.690Z,22.17
2023-08-02T23:35:44.221Z,22.18
2023-08-02T23:38:12.145Z,22.22
2023-08-02T23:40:38.666Z,22.20
2023-08-02T23:43:05.321Z,22.19
2023-08-02T23:45:32.294Z,22.21
2023-08-02T23:47:58.903Z,22.21
2023-08-02T23:50:25.472Z,22.28
2023-08-02T23:52:52.044Z,22.30
2023-08-02T23:55:18.460Z,22.34
2023-08-02T23:57:45.011Z,22.45
